Terminal Aerodrome Forecast
Issued by NWS

Home | Current Version | Previous Version | Text Only | Print | Product List | Glossary On
Versions: 1 2 3 4 5 6 7 8 9 10 11 12 13 14 15 16
000
FTUS42 KJAX 011120
TAFCRG
TAF
KCRG 011120Z 0112/0212 14004KT P6SM SCT040 SCT150 SCT250
      TEMPO 0112/0114 BKN040
     FM011600 17012G18KT P6SM SCT040 SCT150 BKN250
     FM020900 20012G18KT P6SM VCSH SCT025 OVC050=

USA.gov is the U.S. government's official web portal to all federal, state and local government web resources and services.